createdAt,value
2018-06-03T00:01:40.473Z,13.50
2018-06-03T00:04:13.721Z,13.53
2018-06-03T00:06:46.998Z,13.83
2018-06-03T00:09:19.696Z,14.47
2018-06-03T00:11:52.699Z,13.87
2018-06-03T00:14:25.267Z,16.67
2018-06-03T00:16:57.825Z,15.73
2018-06-03T00:19:31.046Z,17.00
2018-06-03T00:22:28.252Z,20.17
2018-06-03T00:25:00.705Z,20.60
2018-06-03T00:27:33.468Z,20.27
2018-06-03T00:30:06.669Z,21.17
2018-06-03T00:32:39.153Z,22.63
2018-06-03T00:35:12.917Z,18.67
2018-06-03T00:37:45.597Z,20.43
2018-06-03T00:40:18.061Z,20.20
2018-06-03T00:42:51.270Z,21.33
2018-06-03T00:45:28.955Z,21.67
2018-06-03T00:48:02.641Z,20.70
2018-06-03T00:50:36.025Z,24.10
2018-06-03T00:53:09.194Z,26.75
2018-06-03T00:55:42.399Z,20.77
2018-06-03T00:58:16.153Z,27.25
2018-06-03T01:00:49.057Z,23.83
2018-06-03T01:03:23.239Z,28.37
2018-06-03T01:05:56.442Z,29.23
2018-06-03T01:08:29.275Z,28.97
2018-06-03T01:11:01.978Z,28.47
2018-06-03T01:13:34.725Z,29.90
2018-06-03T01:16:07.348Z,32.70
2018-06-03T01:18:39.880Z,33.67
2018-06-03T01:21:13.638Z,35.00
2018-06-03T01:23:46.565Z,39.30
2018-06-03T01:26:19.280Z,38.43
2018-06-03T01:28:53.322Z,43.40
2018-06-03T01:31:26.378Z,42.90
2018-06-03T01:33:58.934Z,42.73
2018-06-03T01:36:31.869Z,37.77
2018-06-03T01:39:06.512Z,38.57
2018-06-03T01:41:39.084Z,38.23
2018-06-03T01:44:12.500Z,57.17
2018-06-03T01:46:45.042Z,42.13
2018-06-03T01:49:17.809Z,34.83
2018-06-03T01:51:51.743Z,37.77
2018-06-03T01:54:24.432Z,39.80
2018-06-03T01:56:57.589Z,40.80
2018-06-03T01:59:30.410Z,39.10
2018-06-03T02:02:02.866Z,40.13
2018-06-03T02:04:35.321Z,44.00
2018-06-03T02:07:08.401Z,43.87
2018-06-03T02:09:41.074Z,37.57
2018-06-03T02:12:13.472Z,60.10
2018-06-03T02:14:46.219Z,55.73
2018-06-03T02:17:18.876Z,42.13
2018-06-03T02:19:51.639Z,44.37
2018-06-03T02:22:24.617Z,55.65
2018-06-03T02:24:57.525Z,49.77
2018-06-03T02:27:30.165Z,39.83
2018-06-03T02:30:06.005Z,41.40
2018-06-03T02:32:38.617Z,45.00
2018-06-03T02:35:11.210Z,41.33
2018-06-03T02:37:44.185Z,45.97
2018-06-03T02:40:16.989Z,51.67
2018-06-03T02:42:49.799Z,44.87
2018-06-03T02:45:22.698Z,37.83
2018-06-03T02:47:56.114Z,44.93
2018-06-03T02:50:28.751Z,42.17
2018-06-03T02:53:03.332Z,41.43
2018-06-03T02:55:35.863Z,50.70
2018-06-03T02:58:08.421Z,38.57
2018-06-03T03:00:42.290Z,49.77
2018-06-03T03:03:14.833Z,59.30
2018-06-03T03:05:47.386Z,64.23
2018-06-03T03:08:20.162Z,67.47
2018-06-03T03:10:52.745Z,59.50
2018-06-03T03:13:29.177Z,101.75
2018-06-03T03:16:02.702Z,69.90
2018-06-03T03:18:35.440Z,75.50
2018-06-03T03:21:08.297Z,78.03
2018-06-03T03:23:41.465Z,85.40
2018-06-03T03:26:14.246Z,83.93
2018-06-03T03:28:47.318Z,70.00
2018-06-03T03:31:20.259Z,55.73
2018-06-03T03:33:52.681Z,84.87
2018-06-03T03:36:25.981Z,75.50
2018-06-03T03:39:00.908Z,62.45
2018-06-03T03:41:33.316Z,80.67
2018-06-03T03:44:05.989Z,77.73
2018-06-03T03:46:38.875Z,76.87
2018-06-03T03:49:11.429Z,67.57
2018-06-03T03:51:43.757Z,53.10
2018-06-03T03:54:16.919Z,54.03
2018-06-03T03:56:49.375Z,62.80
2018-06-03T03:59:22.046Z,88.70
2018-06-03T04:01:54.701Z,66.63
2018-06-03T04:04:27.364Z,65.80
2018-06-03T04:07:00.446Z,55.10
2018-06-03T04:09:34.528Z,81.77
2018-06-03T04:12:07.124Z,75.97
2018-06-03T04:14:39.701Z,69.70
2018-06-03T04:17:12.536Z,69.77
2018-06-03T04:19:45.868Z,78.23
2018-06-03T04:22:18.407Z,74.25
2018-06-03T04:25:02.031Z,75.20
2018-06-03T04:27:34.993Z,87.47
2018-06-03T04:30:08.534Z,102.83
2018-06-03T04:32:42.425Z,99.77
2018-06-03T04:35:15.625Z,122.57
2018-06-03T04:37:48.487Z,106.53
2018-06-03T04:40:21.037Z,91.00
2018-06-03T04:42:53.667Z,93.17
2018-06-03T04:45:26.340Z,84.73
2018-06-03T04:47:58.728Z,89.93
2018-06-03T04:50:31.243Z,87.90
2018-06-03T04:53:06.153Z,86.97
2018-06-03T04:55:39.236Z,88.43
2018-06-03T04:58:12.373Z,77.67
2018-06-03T05:00:45.133Z,70.40
2018-06-03T05:03:17.552Z,72.50
2018-06-03T05:05:50.152Z,73.73
2018-06-03T05:08:22.898Z,74.33
2018-06-03T05:10:55.492Z,74.10
2018-06-03T05:13:28.069Z,62.57
2018-06-03T05:16:02.093Z,58.50
2018-06-03T05:18:34.599Z,59.10
2018-06-03T05:21:07.295Z,56.77
2018-06-03T05:23:40.469Z,58.07
2018-06-03T05:26:13.211Z,50.07
2018-06-03T05:28:45.892Z,51.67
2018-06-03T05:31:19.631Z,53.03
2018-06-03T05:33:52.152Z,50.78
2018-06-03T05:36:24.932Z,41.53
2018-06-03T05:38:58.096Z,38.57
2018-06-03T05:41:30.731Z,43.00
2018-06-03T05:44:03.244Z,39.50
2018-06-03T05:46:36.204Z,45.53
2018-06-03T05:49:08.737Z,49.40
2018-06-03T05:51:41.632Z,53.03
2018-06-03T05:54:14.360Z,49.50
2018-06-03T05:56:47.317Z,50.77
2018-06-03T05:59:20.136Z,52.27
2018-06-03T06:01:52.749Z,52.97
2018-06-03T06:04:26.075Z,55.73
2018-06-03T06:06:58.502Z,53.77
2018-06-03T06:09:30.829Z,53.63
2018-06-03T06:12:03.736Z,48.50
2018-06-03T06:14:36.356Z,54.70
2018-06-03T06:17:08.962Z,59.73
2018-06-03T06:19:41.957Z,53.80
2018-06-03T06:22:14.987Z,50.73
2018-06-03T06:24:48.176Z,48.00
2018-06-03T06:27:22.906Z,50.70
2018-06-03T06:29:55.654Z,46.87
2018-06-03T06:32:28.810Z,42.50
2018-06-03T06:35:01.639Z,44.10
2018-06-03T06:37:34.133Z,45.03
2018-06-03T06:40:06.591Z,42.77
2018-06-03T06:42:39.540Z,43.08
2018-06-03T06:45:15.232Z,37.00
2018-06-03T06:47:48.478Z,35.67
2018-06-03T06:50:22.008Z,36.37
2018-06-03T06:52:55.223Z,30.93
2018-06-03T06:55:28.017Z,26.97
2018-06-03T06:58:00.949Z,20.03
2018-06-03T07:00:33.527Z,23.17
2018-06-03T07:03:06.089Z,24.70
2018-06-03T07:05:38.934Z,34.00
2018-06-03T07:08:13.100Z,37.65
2018-06-03T07:10:45.716Z,38.37
2018-06-03T07:13:18.881Z,39.37
2018-06-03T07:15:51.485Z,38.93
2018-06-03T07:18:24.402Z,34.43
2018-06-03T07:20:57.189Z,35.73
2018-06-03T07:23:30.257Z,37.70
2018-06-03T07:26:02.814Z,36.40
2018-06-03T07:28:36.624Z,37.37
2018-06-03T07:31:09.311Z,32.37
2018-06-03T07:33:41.778Z,34.10
2018-06-03T07:36:14.501Z,37.63
2018-06-03T07:38:47.435Z,37.75
2018-06-03T07:41:20.526Z,36.80
2018-06-03T07:43:54.021Z,38.25
2018-06-03T07:46:27.368Z,41.72
2018-06-03T07:48:59.933Z,34.95
2018-06-03T07:51:32.919Z,34.87
2018-06-03T07:54:05.611Z,34.30
2018-06-03T07:56:38.234Z,34.13
2018-06-03T07:59:10.992Z,33.73
2018-06-03T08:01:43.609Z,32.87
2018-06-03T08:04:16.179Z,31.43
2018-06-03T08:06:49.116Z,34.10
2018-06-03T08:09:23.072Z,38.40
2018-06-03T08:11:55.947Z,36.67
2018-06-03T08:14:29.142Z,36.20
2018-06-03T08:17:01.726Z,33.23
2018-06-03T08:19:34.298Z,33.27
2018-06-03T08:22:07.064Z,34.83
2018-06-03T08:24:39.689Z,36.30
2018-06-03T08:27:12.340Z,36.83
2018-06-03T08:29:45.287Z,32.97
2018-06-03T08:32:18.967Z,28.47
2018-06-03T08:34:51.853Z,29.50
2018-06-03T08:37:25.666Z,33.57
2018-06-03T08:39:58.645Z,31.23
2018-06-03T08:42:32.791Z,34.17
2018-06-03T08:45:07.049Z,35.57
2018-06-03T08:47:39.665Z,39.87
2018-06-03T08:50:12.220Z,36.97
2018-06-03T08:52:45.209Z,37.43
2018-06-03T08:55:17.877Z,36.93
2018-06-03T08:57:50.729Z,38.13
2018-06-03T09:00:25.435Z,37.73
2018-06-03T09:02:58.130Z,34.10
2018-06-03T09:05:31.434Z,31.80
2018-06-03T09:08:04.642Z,134.13
2018-06-03T09:10:37.849Z,33.07
2018-06-03T09:13:10.501Z,29.83
2018-06-03T09:15:43.655Z,30.27
2018-06-03T09:18:17.112Z,27.90
2018-06-03T09:20:49.741Z,32.78
2018-06-03T09:23:23.936Z,30.10
2018-06-03T09:25:56.737Z,33.90
2018-06-03T09:28:30.062Z,30.90
2018-06-03T09:31:05.913Z,33.53
2018-06-03T09:33:38.588Z,30.87
2018-06-03T09:36:11.092Z,34.23
2018-06-03T09:38:44.047Z,38.67
2018-06-03T09:41:16.558Z,35.60
2018-06-03T09:43:50.963Z,33.13
2018-06-03T09:46:25.322Z,37.93
2018-06-03T09:48:58.154Z,38.00
2018-06-03T09:51:31.903Z,39.70
2018-06-03T09:54:04.859Z,39.20
2018-06-03T09:56:37.601Z,38.10
2018-06-03T09:59:10.160Z,35.47
2018-06-03T10:01:42.880Z,35.77
2018-06-03T10:04:15.521Z,35.57
2018-06-03T10:06:48.001Z,36.63
2018-06-03T10:09:22.304Z,37.40
2018-06-03T10:11:55.290Z,41.13
2018-06-03T10:14:30.963Z,38.60
2018-06-03T10:17:04.400Z,39.33
2018-06-03T10:19:36.934Z,37.43
2018-06-03T10:22:09.438Z,38.77
2018-06-03T10:24:42.257Z,35.97
2018-06-03T10:27:14.808Z,34.03
2018-06-03T10:29:47.673Z,39.60
2018-06-03T10:32:27.224Z,35.40
2018-06-03T10:35:00.152Z,35.90
2018-06-03T10:37:33.473Z,34.20
2018-06-03T10:40:08.237Z,39.20
2018-06-03T10:42:41.020Z,39.83
2018-06-03T10:45:15.153Z,40.37
2018-06-03T10:47:48.351Z,38.23
2018-06-03T10:50:22.061Z,40.33
2018-06-03T10:52:54.888Z,42.07
2018-06-03T10:55:29.645Z,43.70
2018-06-03T10:58:02.316Z,37.40
2018-06-03T11:00:34.903Z,39.17
2018-06-03T11:03:08.009Z,41.83
2018-06-03T11:05:40.588Z,40.00
2018-06-03T11:08:13.000Z,39.80
2018-06-03T11:10:45.841Z,42.53
2018-06-03T11:13:18.398Z,43.60
2018-06-03T11:15:51.469Z,39.43
2018-06-03T11:18:32.822Z,40.30
2018-06-03T11:21:05.647Z,35.20
2018-06-03T11:23:38.065Z,35.23
2018-06-03T11:26:10.929Z,37.20
2018-06-03T11:28:43.477Z,36.27
2018-06-03T11:31:16.110Z,38.45
2018-06-03T11:33:50.021Z,34.40
2018-06-03T11:36:23.949Z,35.83
2018-06-03T11:38:56.890Z,36.83
2018-06-03T11:41:32.306Z,40.78
2018-06-03T11:44:05.874Z,33.23
2018-06-03T11:46:39.559Z,33.43
2018-06-03T11:49:12.430Z,35.77
2018-06-03T11:51:45.118Z,33.50
2018-06-03T11:54:17.810Z,30.70
2018-06-03T11:57:03.012Z,33.97
2018-06-03T11:59:42.993Z,30.23
2018-06-03T12:02:18.674Z,29.57
2018-06-03T12:04:51.897Z,28.40
2018-06-03T12:07:27.959Z,30.57
2018-06-03T12:10:01.625Z,28.57
2018-06-03T12:12:36.018Z,27.63
2018-06-03T12:15:09.297Z,52.00
2018-06-03T12:17:43.364Z,31.95
2018-06-03T12:20:16.710Z,29.50
2018-06-03T12:22:49.701Z,28.93
2018-06-03T12:25:23.619Z,29.40
2018-06-03T12:27:56.819Z,27.03
2018-06-03T12:30:31.855Z,27.53
2018-06-03T12:33:04.513Z,26.87
2018-06-03T12:35:37.195Z,27.40
2018-06-03T12:38:11.058Z,27.83
2018-06-03T12:44:06.367Z,26.03
2018-06-03T12:46:39.449Z,25.67
2018-06-03T12:49:12.362Z,28.53
2018-06-03T12:51:44.925Z,26.13
2018-06-03T12:54:17.874Z,28.53
2018-06-03T12:56:50.565Z,25.97
2018-06-03T12:59:25.680Z,24.67
2018-06-03T13:01:58.651Z,25.93
2018-06-03T13:04:32.854Z,26.20
2018-06-03T13:07:05.544Z,24.13
2018-06-03T13:09:38.052Z,25.53
2018-06-03T13:12:11.605Z,24.77
2018-06-03T13:14:44.187Z,24.10
2018-06-03T13:17:16.953Z,26.50
2018-06-03T13:19:49.956Z,25.00
2018-06-03T13:22:22.353Z,23.93
2018-06-03T13:24:55.393Z,21.23
2018-06-03T13:27:28.996Z,22.80
2018-06-03T13:30:04.498Z,25.43
2018-06-03T13:32:39.197Z,24.23
2018-06-03T13:35:11.989Z,23.30
2018-06-03T13:37:44.437Z,23.42
2018-06-03T13:40:17.199Z,23.80
2018-06-03T13:42:50.738Z,21.00
2018-06-03T13:45:24.708Z,22.57
2018-06-03T13:47:57.445Z,22.50
2018-06-03T13:50:31.149Z,22.20
2018-06-03T13:53:04.051Z,25.20
2018-06-03T13:55:39.577Z,25.80
2018-06-03T13:58:12.085Z,23.53
2018-06-03T14:00:45.435Z,23.20
2018-06-03T14:03:17.984Z,22.40
2018-06-03T14:05:50.605Z,22.93
2018-06-03T14:08:23.722Z,24.30
2018-06-03T14:10:56.577Z,23.48
2018-06-03T14:13:30.055Z,24.60
2018-06-03T14:16:03.074Z,22.50
2018-06-03T14:18:36.922Z,21.70
2018-06-03T14:21:10.038Z,20.90
2018-06-03T14:23:45.171Z,23.63
2018-06-03T14:26:17.982Z,24.60
2018-06-03T14:28:50.508Z,22.70
2018-06-03T14:31:23.451Z,25.87
2018-06-03T14:33:57.043Z,24.33
2018-06-03T14:36:31.607Z,25.77
2018-06-03T14:39:08.314Z,28.57
2018-06-03T14:41:41.472Z,27.80
2018-06-03T14:44:14.117Z,26.03
2018-06-03T14:46:47.388Z,29.55
2018-06-03T14:49:20.251Z,26.70
2018-06-03T14:51:52.874Z,29.20
2018-06-03T14:54:25.834Z,26.20
2018-06-03T14:56:59.097Z,29.00
2018-06-03T14:59:34.807Z,25.60
2018-06-03T15:02:09.477Z,28.73
2018-06-03T15:04:42.426Z,28.17
2018-06-03T15:07:16.217Z,25.70
2018-06-03T15:09:48.973Z,24.07
2018-06-03T15:12:21.522Z,26.37
2018-06-03T15:14:54.469Z,26.20
2018-06-03T15:17:28.229Z,28.70
2018-06-03T15:20:04.704Z,28.90
2018-06-03T15:22:39.926Z,26.03
2018-06-03T15:25:12.509Z,25.03
2018-06-03T15:27:46.029Z,23.83
2018-06-03T15:30:18.514Z,23.57
2018-06-03T15:32:52.282Z,24.63
2018-06-03T15:35:27.966Z,25.17
2018-06-03T15:38:02.005Z,25.10
2018-06-03T15:40:39.060Z,26.73
2018-06-03T15:43:15.823Z,26.87
2018-06-03T15:45:48.582Z,23.97
2018-06-03T15:48:21.245Z,26.63
2018-06-03T15:50:53.840Z,23.97
2018-06-03T15:53:26.912Z,25.30
2018-06-03T15:56:00.130Z,24.43
2018-06-03T15:58:35.813Z,25.83
2018-06-03T16:01:09.510Z,23.57
2018-06-03T16:03:42.758Z,24.47
2018-06-03T16:06:15.225Z,23.07
2018-06-03T16:08:51.972Z,22.83
2018-06-03T16:11:26.072Z,24.10
2018-06-03T16:14:06.873Z,23.37
2018-06-03T16:16:41.509Z,24.00
2018-06-03T16:19:17.885Z,23.23
2018-06-03T16:21:51.235Z,21.53
2018-06-03T16:24:24.098Z,22.07
2018-06-03T16:26:57.009Z,20.60
2018-06-03T16:29:31.835Z,20.53
2018-06-03T16:32:06.353Z,21.37
2018-06-03T16:34:41.747Z,19.77
2018-06-03T16:37:16.997Z,21.00
2018-06-03T16:39:51.490Z,20.30
2018-06-03T16:42:27.012Z,21.37
2018-06-03T16:45:05.837Z,19.90
2018-06-03T16:47:44.578Z,19.00
2018-06-03T16:50:26.014Z,20.13
2018-06-03T16:53:10.209Z,19.23
2018-06-03T16:55:55.992Z,19.60
2018-06-03T16:58:45.503Z,18.97
2018-06-03T17:01:38.611Z,19.67
2018-06-03T17:04:31.885Z,18.73
2018-06-03T17:07:23.799Z,19.20
2018-06-03T17:10:49.782Z,20.53
2018-06-03T17:13:27.861Z,19.53
2018-06-03T17:16:14.056Z,19.70
2018-06-03T17:18:58.902Z,18.00
2018-06-03T17:21:43.685Z,18.57
2018-06-03T17:24:41.377Z,19.58
2018-06-03T17:27:34.312Z,19.57
2018-06-03T17:30:11.003Z,17.60
2018-06-03T17:32:50.906Z,18.33
2018-06-03T17:36:10.210Z,18.60
2018-06-03T17:38:56.343Z,17.73
2018-06-03T17:41:43.239Z,17.33
2018-06-03T17:44:30.400Z,16.33
2018-06-03T17:47:15.491Z,16.87
2018-06-03T17:50:00.535Z,16.47
2018-06-03T17:52:55.849Z,16.77
2018-06-03T17:55:40.279Z,14.10
2018-06-03T17:58:46.002Z,14.77
2018-06-03T18:01:53.317Z,14.20
2018-06-03T18:05:14.884Z,13.77
2018-06-03T18:08:06.696Z,13.50
2018-06-03T18:10:55.550Z,14.67
2018-06-03T18:13:43.242Z,13.53
2018-06-03T18:16:34.822Z,14.13
2018-06-03T18:19:11.818Z,14.17
2018-06-03T18:21:45.303Z,14.97
2018-06-03T18:24:18.935Z,14.00
2018-06-03T18:26:52.857Z,15.23
2018-06-03T18:29:29.503Z,14.60
2018-06-03T18:32:13.591Z,14.93
2018-06-03T18:34:48.199Z,14.47
2018-06-03T18:37:24.310Z,14.10
2018-06-03T18:39:57.879Z,15.37
2018-06-03T18:42:38.353Z,13.20
2018-06-03T18:45:13.687Z,14.17
2018-06-03T18:47:46.934Z,14.95
2018-06-03T18:50:19.951Z,13.30
2018-06-03T18:52:52.612Z,12.30
2018-06-03T18:55:25.934Z,14.23
2018-06-03T18:57:59.481Z,12.30
2018-06-03T19:00:37.124Z,13.67
2018-06-03T19:03:10.385Z,13.90
2018-06-03T19:05:44.000Z,12.87
2018-06-03T19:08:17.657Z,13.07
2018-06-03T19:10:50.600Z,13.30
2018-06-03T19:13:23.916Z,11.37
2018-06-03T19:15:56.598Z,12.87
2018-06-03T19:18:29.854Z,13.43
2018-06-03T19:21:03.007Z,12.90
2018-06-03T19:23:38.309Z,26.43
2018-06-03T19:26:12.383Z,14.10
2018-06-03T19:28:49.321Z,13.97
2018-06-03T19:31:21.874Z,13.23
2018-06-03T19:33:54.549Z,14.73
2018-06-03T19:36:28.727Z,15.23
2018-06-03T19:39:01.390Z,15.03
2018-06-03T19:41:37.136Z,13.43
2018-06-03T19:44:11.064Z,14.63
2018-06-03T19:46:46.948Z,15.03
2018-06-03T19:49:20.464Z,13.33
2018-06-03T19:51:53.696Z,16.23
2018-06-03T19:54:27.088Z,14.10
2018-06-03T19:57:01.158Z,14.17
2018-06-03T19:59:34.678Z,16.13
2018-06-03T20:02:08.214Z,15.60
2018-06-03T20:04:43.836Z,16.30
2018-06-03T20:07:18.949Z,14.67
2018-06-03T20:09:53.675Z,15.07
2018-06-03T20:12:27.017Z,47.45
2018-06-03T20:14:59.638Z,20.40
2018-06-03T20:17:34.096Z,16.27
2018-06-03T20:20:07.958Z,17.77
2018-06-03T20:22:43.428Z,16.50
2018-06-03T20:25:17.398Z,14.77
2018-06-03T20:27:51.082Z,13.63
2018-06-03T20:30:23.472Z,15.70
2018-06-03T20:32:56.413Z,15.47
2018-06-03T20:35:29.582Z,15.53
2018-06-03T20:38:02.439Z,17.03
2018-06-03T20:40:36.193Z,15.53
2018-06-03T20:43:10.106Z,14.77
2018-06-03T20:45:45.791Z,17.60
2018-06-03T20:48:18.488Z,18.77
2018-06-03T20:50:51.908Z,18.45
2018-06-03T20:53:24.416Z,16.10
2018-06-03T20:55:56.958Z,17.05
2018-06-03T20:58:29.756Z,17.50
2018-06-03T21:01:02.873Z,15.13
2018-06-03T21:03:36.349Z,15.63
2018-06-03T21:06:10.053Z,18.70
2018-06-03T21:08:44.705Z,16.80
2018-06-03T21:11:17.398Z,18.03
2018-06-03T21:13:52.289Z,16.53
2018-06-03T21:16:25.024Z,14.47
2018-06-03T21:18:57.829Z,19.17
2018-06-03T21:21:31.189Z,22.50
2018-06-03T21:24:03.992Z,18.33
2018-06-03T21:26:36.892Z,18.93
2018-06-03T21:29:11.652Z,20.20
2018-06-03T21:31:48.214Z,19.77
2018-06-03T21:34:23.879Z,16.93
2018-06-03T21:36:56.927Z,22.35
2018-06-03T21:39:29.955Z,19.20
2018-06-03T21:45:52.336Z,22.30
2018-06-03T21:48:26.619Z,19.90
2018-06-03T21:50:59.961Z,15.83
2018-06-03T21:53:32.519Z,17.63
2018-06-03T21:56:05.221Z,19.20
2018-06-03T21:58:38.639Z,21.43
2018-06-03T22:01:12.192Z,18.50
2018-06-03T22:03:48.247Z,25.87
2018-06-03T22:06:21.441Z,24.70
2018-06-03T22:08:55.375Z,18.50
2018-06-03T22:11:29.101Z,20.80
2018-06-03T22:14:02.934Z,20.87
2018-06-03T22:16:36.635Z,21.23
2018-06-03T22:19:09.000Z,23.27
2018-06-03T22:21:44.974Z,20.80
2018-06-03T22:24:23.133Z,21.47
2018-06-03T22:26:56.822Z,20.20
2018-06-03T22:29:29.689Z,28.35
2018-06-03T22:32:02.401Z,26.00
2018-06-03T22:34:35.009Z,25.33
2018-06-03T22:37:08.250Z,29.93
2018-06-03T22:39:45.558Z,26.83
2018-06-03T22:42:20.267Z,30.73
2018-06-03T22:44:54.170Z,31.73
2018-06-03T22:47:27.014Z,24.80
2018-06-03T22:50:01.050Z,23.77
2018-06-03T22:52:34.529Z,22.67
2018-06-03T22:55:08.397Z,22.07
2018-06-03T22:57:52.085Z,16.77
2018-06-03T23:00:32.079Z,22.37
2018-06-03T23:03:10.408Z,24.98
2018-06-03T23:05:44.814Z,23.83
2018-06-03T23:08:18.040Z,26.93
2018-06-03T23:10:51.030Z,33.43
2018-06-03T23:13:23.611Z,36.43
2018-06-03T23:15:56.798Z,33.88
2018-06-03T23:18:29.565Z,25.27
2018-06-03T23:21:02.178Z,29.90
2018-06-03T23:23:35.111Z,24.07
2018-06-03T23:26:07.983Z,34.70
2018-06-03T23:28:41.691Z,36.67
2018-06-03T23:31:14.919Z,33.93
2018-06-03T23:33:48.323Z,30.63
2018-06-03T23:36:20.809Z,23.90
2018-06-03T23:38:54.112Z,26.80
2018-06-03T23:41:26.909Z,29.60
2018-06-03T23:43:59.524Z,29.90
2018-06-03T23:46:32.417Z,43.07
2018-06-03T23:49:05.607Z,34.83
2018-06-03T23:51:38.298Z,48.30
2018-06-03T23:54:11.484Z,41.93
2018-06-03T23:56:44.851Z,38.57
2018-06-03T23:59:18.921Z,39.05
